createdAt,value
2022-11-05T00:00:50.620Z,8.60
2022-11-05T00:01:50.554Z,8.60
2022-11-05T00:02:50.640Z,8.60
2022-11-05T00:03:50.623Z,8.60
2022-11-05T00:04:50.601Z,8.60
2022-11-05T00:05:50.483Z,8.60
2022-11-05T00:06:50.565Z,8.61
2022-11-05T00:07:50.482Z,8.62
2022-11-05T00:08:50.524Z,8.61
2022-11-05T00:09:50.426Z,8.62
2022-11-05T00:10:50.553Z,8.65
2022-11-05T00:11:50.431Z,8.68
2022-11-05T00:12:50.400Z,8.71
2022-11-05T00:13:50.453Z,8.73
2022-11-05T00:14:50.353Z,8.75
2022-11-05T00:15:50.451Z,8.78
2022-11-05T00:16:50.372Z,8.79
2022-11-05T00:17:50.287Z,8.78
2022-11-05T00:18:50.338Z,8.77
2022-11-05T00:19:50.260Z,8.74
2022-11-05T00:20:50.300Z,8.72
2022-11-05T00:21:50.379Z,8.71
2022-11-05T00:22:50.440Z,8.71
2022-11-05T00:23:50.329Z,8.71
2022-11-05T00:24:50.509Z,8.71
2022-11-05T00:25:50.294Z,8.71
2022-11-05T00:26:52.413Z,8.72
2022-11-05T00:27:50.211Z,8.73
2022-11-05T00:28:50.290Z,8.73
2022-11-05T00:29:50.219Z,8.73
2022-11-05T00:30:50.248Z,8.74
2022-11-05T00:31:50.219Z,8.76
2022-11-05T00:32:50.255Z,8.76
2022-11-05T00:33:50.090Z,8.77
2022-11-05T00:34:50.192Z,8.77
2022-11-05T00:35:50.153Z,8.76
2022-11-05T00:36:50.180Z,8.75
2022-11-05T00:37:50.705Z,8.76
2022-11-05T00:38:50.140Z,8.77
2022-11-05T00:39:50.152Z,8.78
2022-11-05T00:40:51.096Z,8.78
2022-11-05T00:41:49.994Z,8.77
2022-11-05T00:42:50.120Z,8.74
2022-11-05T00:43:50.060Z,8.73
2022-11-05T00:44:50.115Z,8.71
2022-11-05T00:45:49.925Z,8.73
2022-11-05T00:46:50.222Z,8.73
2022-11-05T00:47:49.899Z,8.74
2022-11-05T00:48:49.980Z,8.75
2022-11-05T00:49:49.868Z,8.76
2022-11-05T00:50:49.899Z,8.78
2022-11-05T00:51:49.840Z,8.81
2022-11-05T00:53:12.239Z,8.84
2022-11-05T00:53:49.822Z,8.89
2022-11-05T00:54:51.004Z,8.93
2022-11-05T00:55:49.841Z,8.95
2022-11-05T00:56:49.885Z,8.99
2022-11-05T00:57:49.878Z,9.03
2022-11-05T00:58:49.892Z,9.06
2022-11-05T00:59:49.873Z,9.06
2022-11-05T01:00:49.906Z,9.06
2022-11-05T01:01:50.028Z,9.06
2022-11-05T01:02:49.965Z,9.06
2022-11-05T01:03:51.859Z,9.08
2022-11-05T01:04:49.714Z,9.09
2022-11-05T01:05:49.751Z,9.11
2022-11-05T01:06:50.047Z,9.13
2022-11-05T01:07:49.868Z,9.13
2022-11-05T01:08:49.756Z,9.11
2022-11-05T01:09:49.700Z,9.10
2022-11-05T01:10:49.649Z,9.11
2022-11-05T01:11:49.609Z,9.13
2022-11-05T01:12:49.845Z,9.15
2022-11-05T01:13:49.703Z,9.17
2022-11-05T01:14:49.777Z,9.19
2022-11-05T01:15:49.622Z,9.20
2022-11-05T01:16:49.600Z,9.20
2022-11-05T01:17:49.561Z,9.20
2022-11-05T01:18:49.677Z,9.20
2022-11-05T01:19:49.545Z,9.20
2022-11-05T01:20:49.509Z,9.20
2022-11-05T01:21:49.451Z,9.21
2022-11-05T01:22:50.540Z,9.23
2022-11-05T01:23:49.428Z,9.26
2022-11-05T01:24:49.490Z,9.27
2022-11-05T01:25:49.407Z,9.26
2022-11-05T01:26:49.449Z,9.24
2022-11-05T01:27:49.378Z,9.24
2022-11-05T01:28:49.503Z,9.26
2022-11-05T01:29:49.350Z,9.29
2022-11-05T01:30:49.433Z,9.28
2022-11-05T01:31:49.328Z,9.27
2022-11-05T01:32:49.387Z,9.24
2022-11-05T01:33:49.289Z,9.23
2022-11-05T01:34:49.299Z,9.21
2022-11-05T01:35:49.268Z,9.19
2022-11-05T01:36:49.371Z,9.18
2022-11-05T01:37:49.238Z,9.18
2022-11-05T01:38:50.415Z,9.19
2022-11-05T01:39:49.362Z,9.19
2022-11-05T01:40:49.415Z,9.19
2022-11-05T01:41:49.331Z,9.18
2022-11-05T01:42:49.309Z,9.17
2022-11-05T01:43:49.164Z,9.16
2022-11-05T01:44:49.168Z,9.15
2022-11-05T01:45:49.135Z,9.15
2022-11-05T01:46:49.352Z,9.15
2022-11-05T01:47:49.253Z,9.15
2022-11-05T01:48:49.387Z,9.14
2022-11-05T01:49:49.079Z,9.14
2022-11-05T01:50:49.068Z,9.14
2022-11-05T01:51:49.049Z,9.15
2022-11-05T01:52:49.127Z,9.16
2022-11-05T01:53:49.028Z,9.16
2022-11-05T01:54:49.093Z,9.18
2022-11-05T01:55:48.997Z,9.18
2022-11-05T01:56:49.048Z,9.17
2022-11-05T01:57:48.977Z,9.16
2022-11-05T01:58:49.066Z,9.18
2022-11-05T01:59:48.947Z,9.20
2022-11-05T02:00:49.039Z,9.19
2022-11-05T02:01:49.015Z,9.17
2022-11-05T02:02:49.118Z,9.16
2022-11-05T02:03:48.897Z,9.15
2022-11-05T02:04:48.910Z,9.14
2022-11-05T02:05:48.870Z,9.14
2022-11-05T02:06:48.978Z,9.14
2022-11-05T02:07:48.838Z,9.17
2022-11-05T02:08:48.939Z,9.19
2022-11-05T02:09:48.807Z,9.21
2022-11-05T02:10:48.848Z,9.22
2022-11-05T02:11:48.787Z,9.22
2022-11-05T02:12:48.917Z,9.21
2022-11-05T02:13:48.766Z,9.18
2022-11-05T02:14:48.770Z,9.17
2022-11-05T02:15:48.739Z,9.15
2022-11-05T02:16:48.787Z,9.13
2022-11-05T02:17:48.720Z,9.12
2022-11-05T02:18:49.785Z,9.10
2022-11-05T02:19:48.679Z,9.09
2022-11-05T02:20:52.144Z,9.06
2022-11-05T02:21:48.647Z,9.04
2022-11-05T02:22:48.730Z,9.01
2022-11-05T02:23:48.627Z,8.99
2022-11-05T02:24:50.747Z,9.00
2022-11-05T02:25:48.596Z,9.01
2022-11-05T02:26:48.652Z,9.02
2022-11-05T02:27:48.577Z,9.01
2022-11-05T02:28:48.667Z,8.99
2022-11-05T02:29:48.545Z,8.99
2022-11-05T02:30:48.638Z,8.96
2022-11-05T02:31:48.517Z,8.95
2022-11-05T02:32:48.597Z,8.94
2022-11-05T02:33:48.487Z,8.96
2022-11-05T02:34:48.507Z,8.96
2022-11-05T02:35:48.469Z,8.95
2022-11-05T02:36:48.578Z,8.94
2022-11-05T02:37:48.441Z,8.93
2022-11-05T02:38:48.638Z,8.92
2022-11-05T02:39:48.410Z,8.93
2022-11-05T02:40:48.447Z,8.91
2022-11-05T02:41:48.393Z,8.91
2022-11-05T02:42:48.528Z,8.92
2022-11-05T02:43:48.361Z,8.91
2022-11-05T02:44:48.382Z,8.89
2022-11-05T02:45:48.344Z,8.87
2022-11-05T02:46:48.390Z,8.84
2022-11-05T02:47:48.308Z,8.83
2022-11-05T02:48:48.364Z,8.81
2022-11-05T02:49:48.286Z,8.78
2022-11-05T02:50:48.318Z,8.79
2022-11-05T02:51:48.248Z,8.78
2022-11-05T02:52:48.338Z,8.79
2022-11-05T02:53:48.226Z,8.80
2022-11-05T02:54:48.298Z,8.81
2022-11-05T02:55:48.207Z,8.79
2022-11-05T02:56:48.263Z,8.79
2022-11-05T02:57:48.177Z,8.79
2022-11-05T02:58:48.276Z,8.78
2022-11-05T02:59:48.147Z,8.77
2022-11-05T03:00:48.242Z,8.79
2022-11-05T03:01:48.309Z,8.81
2022-11-05T03:02:48.349Z,8.81
2022-11-05T03:03:48.243Z,8.81
2022-11-05T03:04:48.131Z,8.78
2022-11-05T03:05:48.067Z,8.77
2022-11-05T03:06:48.178Z,8.75
2022-11-05T03:07:48.045Z,8.73
2022-11-05T03:08:48.135Z,8.71
2022-11-05T03:09:48.016Z,8.69
2022-11-05T03:10:49.078Z,8.71
2022-11-05T03:11:47.987Z,8.71
2022-11-05T03:12:48.017Z,8.71
2022-11-05T03:13:47.967Z,8.69
2022-11-05T03:14:47.976Z,8.68
2022-11-05T03:15:47.946Z,8.69
2022-11-05T03:16:47.991Z,8.69
2022-11-05T03:17:47.915Z,8.69
2022-11-05T03:18:47.956Z,8.68
2022-11-05T03:19:47.890Z,8.68
2022-11-05T03:20:47.923Z,8.69
2022-11-05T03:21:47.871Z,8.71
2022-11-05T03:22:47.936Z,8.71
2022-11-05T03:23:47.835Z,8.69
2022-11-05T03:24:47.905Z,8.68
2022-11-05T03:25:47.806Z,8.68
2022-11-05T03:26:47.862Z,8.69
2022-11-05T03:27:47.788Z,8.70
2022-11-05T03:28:47.884Z,8.71
2022-11-05T03:29:47.755Z,8.71
2022-11-05T03:30:47.850Z,8.69
2022-11-05T03:31:47.735Z,8.68
2022-11-05T03:32:47.805Z,8.68
2022-11-05T03:33:47.712Z,8.67
2022-11-05T03:34:47.714Z,8.65
2022-11-05T03:35:47.675Z,8.64
2022-11-05T03:36:47.787Z,8.62
2022-11-05T03:37:47.654Z,8.61
2022-11-05T03:38:47.745Z,8.62
2022-11-05T03:39:47.634Z,8.62
2022-11-05T03:40:47.654Z,8.63
2022-11-05T03:41:47.605Z,8.64
2022-11-05T03:42:48.059Z,8.63
2022-11-05T03:43:47.576Z,8.61
2022-11-05T03:44:47.582Z,8.60
2022-11-05T03:45:47.558Z,8.60
2022-11-05T03:46:47.591Z,8.61
2022-11-05T03:47:47.527Z,8.65
2022-11-05T03:48:47.635Z,8.66
2022-11-05T03:49:47.494Z,8.66
2022-11-05T03:50:47.524Z,8.64
2022-11-05T03:51:47.466Z,8.65
2022-11-05T03:52:47.543Z,8.63
2022-11-05T03:53:47.445Z,8.63
2022-11-05T03:54:47.504Z,8.63
2022-11-05T03:55:47.414Z,8.62
2022-11-05T03:56:48.484Z,8.63
2022-11-05T03:57:47.414Z,8.62
2022-11-05T03:58:47.476Z,8.60
2022-11-05T03:59:47.360Z,8.59
2022-11-05T04:00:47.444Z,8.61
2022-11-05T04:01:47.443Z,8.63
2022-11-05T04:02:47.493Z,8.63
2022-11-05T04:03:47.306Z,8.65
2022-11-05T04:04:47.323Z,8.64
2022-11-05T04:05:47.291Z,8.63
2022-11-05T04:06:47.385Z,8.63
2022-11-05T04:07:47.270Z,8.61
2022-11-05T04:08:47.343Z,8.62
2022-11-05T04:09:47.246Z,8.60
2022-11-05T04:10:47.260Z,8.59
2022-11-05T04:11:47.208Z,8.60
2022-11-05T04:12:47.334Z,8.61
2022-11-05T04:13:47.184Z,8.63
2022-11-05T04:14:47.183Z,8.62
2022-11-05T04:15:47.154Z,8.63
2022-11-05T04:16:47.202Z,8.64
2022-11-05T04:17:47.181Z,8.64
2022-11-05T04:18:47.164Z,8.63
2022-11-05T04:19:47.106Z,8.61
2022-11-05T04:20:47.124Z,8.58
2022-11-05T04:21:47.073Z,8.58
2022-11-05T04:22:47.171Z,8.57
2022-11-05T04:23:47.051Z,8.56
2022-11-05T04:24:47.104Z,8.56
2022-11-05T04:25:47.022Z,8.55
2022-11-05T04:26:47.070Z,8.55
2022-11-05T04:27:47.009Z,8.57
2022-11-05T04:28:47.082Z,8.58
2022-11-05T04:29:46.988Z,8.59
2022-11-05T04:30:47.053Z,8.59
2022-11-05T04:31:46.955Z,8.58
2022-11-05T04:32:47.011Z,8.59
2022-11-05T04:33:46.922Z,8.57
2022-11-05T04:34:47.025Z,8.56
2022-11-05T04:35:46.902Z,8.57
2022-11-05T04:36:46.992Z,8.56
2022-11-05T04:37:46.871Z,8.57
2022-11-05T04:38:46.955Z,8.57
2022-11-05T04:39:46.857Z,8.57
2022-11-05T04:40:47.891Z,8.54
2022-11-05T04:41:46.823Z,8.55
2022-11-05T04:42:46.935Z,8.55
2022-11-05T04:43:46.799Z,8.51
2022-11-05T04:44:46.892Z,8.47
2022-11-05T04:45:46.765Z,8.45
2022-11-05T04:46:46.804Z,8.43
2022-11-05T04:47:46.742Z,8.42
2022-11-05T04:48:46.765Z,8.41
2022-11-05T04:49:46.714Z,8.39
2022-11-05T04:50:46.732Z,8.38
2022-11-05T04:51:46.692Z,8.36
2022-11-05T04:52:46.741Z,8.35
2022-11-05T04:53:46.722Z,8.35
2022-11-05T04:54:46.712Z,8.37
2022-11-05T04:55:46.634Z,8.39
2022-11-05T04:56:46.673Z,8.39
2022-11-05T04:57:46.613Z,8.39
2022-11-05T04:58:47.710Z,8.37
2022-11-05T04:59:46.595Z,8.36
2022-11-05T05:00:46.840Z,8.37
2022-11-05T05:01:46.588Z,8.36
2022-11-05T05:02:46.623Z,8.35
2022-11-05T05:03:46.542Z,8.35
2022-11-05T05:04:46.631Z,8.36
2022-11-05T05:05:46.502Z,8.37
2022-11-05T05:06:46.593Z,8.38
2022-11-05T05:07:46.474Z,8.40
2022-11-05T05:08:46.561Z,8.40
2022-11-05T05:09:46.461Z,8.39
2022-11-05T05:10:46.470Z,8.40
2022-11-05T05:11:46.431Z,8.41
2022-11-05T05:12:46.533Z,8.43
2022-11-05T05:13:46.401Z,8.45
2022-11-05T05:14:46.493Z,8.46
2022-11-05T05:15:46.380Z,8.46
2022-11-05T05:16:46.406Z,8.46
2022-11-05T05:17:46.351Z,8.45
2022-11-05T05:18:46.678Z,8.44
2022-11-05T05:19:46.324Z,8.45
2022-11-05T05:20:46.331Z,8.46
2022-11-05T05:21:46.300Z,8.47
2022-11-05T05:22:46.349Z,8.47
2022-11-05T05:23:46.272Z,8.48
2022-11-05T05:24:51.483Z,8.49
2022-11-05T05:25:47.251Z,8.48
2022-11-05T05:26:46.280Z,8.48
2022-11-05T05:27:46.221Z,8.50
2022-11-05T05:28:46.302Z,8.51
2022-11-05T05:29:46.200Z,8.52
2022-11-05T05:30:46.261Z,8.53
2022-11-05T05:31:46.170Z,8.54
2022-11-05T05:32:46.220Z,8.54
2022-11-05T05:33:46.149Z,8.53
2022-11-05T05:34:46.232Z,8.54
2022-11-05T05:35:46.119Z,8.54
2022-11-05T05:36:46.201Z,8.56
2022-11-05T05:37:46.102Z,8.58
2022-11-05T05:38:46.160Z,8.58
2022-11-05T05:39:46.061Z,8.58
2022-11-05T05:40:46.081Z,8.60
2022-11-05T05:41:46.041Z,8.61
2022-11-05T05:42:46.142Z,8.63
2022-11-05T05:43:46.020Z,8.63
2022-11-05T05:44:46.100Z,8.62
2022-11-05T05:45:45.988Z,8.62
2022-11-05T05:46:46.010Z,8.61
2022-11-05T05:47:45.972Z,8.60
2022-11-05T05:48:46.081Z,8.61
2022-11-05T05:49:45.940Z,8.63
2022-11-05T05:50:47.178Z,8.67
2022-11-05T05:51:45.910Z,8.70
2022-11-05T05:52:45.953Z,8.72
2022-11-05T05:53:45.880Z,8.73
2022-11-05T05:54:46.034Z,8.74
2022-11-05T05:55:45.859Z,8.75
2022-11-05T05:56:46.941Z,8.76
2022-11-05T05:57:45.831Z,8.78
2022-11-05T05:58:45.898Z,8.80
2022-11-05T05:59:45.809Z,8.83
2022-11-05T06:00:46.890Z,8.87
2022-11-05T06:01:45.875Z,8.90
2022-11-05T06:02:45.888Z,8.92
2022-11-05T06:03:45.758Z,8.91
2022-11-05T06:04:45.839Z,8.92
2022-11-05T06:05:45.729Z,8.93
2022-11-05T06:06:45.804Z,8.93
2022-11-05T06:07:45.997Z,8.92
2022-11-05T06:08:45.769Z,8.93
2022-11-05T06:09:45.682Z,8.91
2022-11-05T06:10:45.841Z,8.92
2022-11-05T06:11:45.657Z,8.95
2022-11-05T06:12:45.740Z,8.97
2022-11-05T06:13:45.620Z,8.99
2022-11-05T06:14:45.701Z,8.98
2022-11-05T06:15:45.608Z,8.97
2022-11-05T06:16:45.633Z,8.97
2022-11-05T06:17:45.580Z,8.97
2022-11-05T06:18:45.690Z,8.96
2022-11-05T06:19:45.550Z,8.95
2022-11-05T06:20:45.750Z,8.93
2022-11-05T06:21:45.530Z,8.91
2022-11-05T06:22:46.637Z,8.91
2022-11-05T06:23:45.509Z,8.91
2022-11-05T06:24:45.613Z,8.89
2022-11-05T06:25:45.494Z,8.89
2022-11-05T06:26:45.819Z,8.89
2022-11-05T06:27:45.582Z,8.89
2022-11-05T06:28:47.610Z,8.88
2022-11-05T06:29:45.419Z,8.87
2022-11-05T06:30:45.528Z,8.85
2022-11-05T06:31:45.384Z,8.84
2022-11-05T06:32:45.493Z,8.83
2022-11-05T06:33:45.358Z,8.83
2022-11-05T06:34:45.519Z,8.83
2022-11-05T06:35:45.338Z,8.85
2022-11-05T06:36:45.523Z,8.87
2022-11-05T06:37:45.298Z,8.91
2022-11-05T06:38:45.397Z,8.95
2022-11-05T06:39:45.290Z,8.98
2022-11-05T06:40:45.466Z,9.00
2022-11-05T06:42:12.038Z,9.01
2022-11-05T06:42:46.287Z,8.99
2022-11-05T06:43:45.230Z,8.98
2022-11-05T06:44:45.397Z,8.99
2022-11-05T06:45:45.357Z,8.99
2022-11-05T06:46:48.581Z,9.00
2022-11-05T06:47:45.186Z,9.00
2022-11-05T06:48:45.317Z,9.00
2022-11-05T06:49:45.158Z,9.01
2022-11-05T06:50:45.305Z,9.02
2022-11-05T06:51:45.129Z,9.03
2022-11-05T06:52:45.239Z,9.05
2022-11-05T06:53:45.096Z,9.06
2022-11-05T06:54:45.347Z,9.08
2022-11-05T06:55:45.075Z,9.10
2022-11-05T06:56:45.209Z,9.11
2022-11-05T06:57:45.069Z,9.09
2022-11-05T06:58:47.554Z,9.10
2022-11-05T06:59:46.502Z,9.09
2022-11-05T07:00:48.913Z,9.08
2022-11-05T07:01:47.651Z,9.06
2022-11-05T07:02:45.450Z,9.05
2022-11-05T07:03:45.720Z,9.05
2022-11-05T07:04:46.043Z,9.04
2022-11-05T07:05:45.777Z,9.04
2022-11-05T07:06:46.914Z,9.06
2022-11-05T07:07:46.182Z,9.10
2022-11-05T07:08:46.698Z,9.15
2022-11-05T07:09:48.208Z,9.19
2022-11-05T07:10:46.910Z,9.22
2022-11-05T07:11:45.647Z,9.23
2022-11-05T07:12:47.404Z,9.25
2022-11-05T07:13:47.414Z,9.26
2022-11-05T07:14:45.946Z,9.27
2022-11-05T07:15:46.482Z,9.26
2022-11-05T07:16:49.587Z,9.24
2022-11-05T07:17:45.473Z,9.24
2022-11-05T07:18:45.280Z,9.25
2022-11-05T07:19:45.667Z,9.29
2022-11-05T07:20:49.881Z,9.30
2022-11-05T07:21:46.968Z,9.29
2022-11-05T07:22:46.195Z,9.29
2022-11-05T07:23:45.085Z,9.30
2022-11-05T07:24:46.353Z,9.32
2022-11-05T07:25:45.253Z,9.36
2022-11-05T07:26:46.228Z,9.37
2022-11-05T07:27:44.657Z,9.39
2022-11-05T07:28:44.737Z,9.40
2022-11-05T07:29:44.736Z,9.39
2022-11-05T07:30:44.728Z,9.39
2022-11-05T07:31:44.586Z,9.42
2022-11-05T07:32:46.806Z,9.44
2022-11-05T07:33:44.582Z,9.46
2022-11-05T07:34:44.767Z,9.49
2022-11-05T07:35:44.546Z,9.54
2022-11-05T07:36:44.783Z,9.57
2022-11-05T07:37:44.505Z,9.59
2022-11-05T07:38:46.623Z,9.60
2022-11-05T07:39:44.476Z,9.62
2022-11-05T07:40:45.579Z,9.62
2022-11-05T07:41:44.491Z,9.60
2022-11-05T07:42:44.641Z,9.60
2022-11-05T07:43:44.496Z,9.62
2022-11-05T07:45:53.920Z,9.09
2022-11-05T07:46:53.692Z,9.09
2022-11-05T07:47:53.885Z,9.30
2022-11-05T07:48:53.675Z,9.41
2022-11-05T07:49:53.880Z,9.49
2022-11-05T07:50:53.642Z,9.53
2022-11-05T07:51:53.707Z,9.57
2022-11-05T07:52:53.616Z,9.60
2022-11-05T07:53:53.800Z,9.63
2022-11-05T07:54:53.601Z,9.64
2022-11-05T07:55:53.820Z,9.64
2022-11-05T07:56:53.553Z,9.67
2022-11-05T07:57:55.051Z,9.69
2022-11-05T07:58:54.313Z,9.71
2022-11-05T07:59:55.957Z,9.72
2022-11-05T08:00:58.275Z,9.71
2022-11-05T08:01:55.103Z,9.69
2022-11-05T08:02:54.636Z,9.68
2022-11-05T08:03:54.079Z,9.66
2022-11-05T08:04:53.716Z,9.65
2022-11-05T08:05:54.359Z,9.64
2022-11-05T08:06:54.975Z,9.63
2022-11-05T08:07:54.296Z,9.66
2022-11-05T08:08:54.804Z,9.72
2022-11-05T08:09:54.756Z,9.76
2022-11-05T08:10:57.544Z,9.80
2022-11-05T08:11:57.355Z,9.85
2022-11-05T08:12:55.697Z,9.89
2022-11-05T08:13:54.389Z,9.92
2022-11-05T08:14:53.550Z,9.94
2022-11-05T08:15:54.273Z,9.92
2022-11-05T08:16:53.406Z,9.90
2022-11-05T08:17:53.304Z,9.90
2022-11-05T08:19:14.537Z,9.95
2022-11-05T08:19:53.268Z,10.02
2022-11-05T08:20:54.372Z,10.07
2022-11-05T08:21:53.229Z,10.11
2022-11-05T08:22:53.379Z,10.13
2022-11-05T08:23:53.243Z,10.14
2022-11-05T08:24:53.213Z,10.16
2022-11-05T08:25:53.178Z,10.20
2022-11-05T08:26:53.259Z,10.25
2022-11-05T08:27:53.155Z,10.30
2022-11-05T08:28:53.189Z,10.33
2022-11-05T08:29:53.150Z,10.35
2022-11-05T08:30:53.230Z,10.36
2022-11-05T08:31:53.098Z,10.33
2022-11-05T08:32:54.183Z,10.31
2022-11-05T08:33:54.409Z,10.29
2022-11-05T08:34:53.070Z,10.26
2022-11-05T08:35:53.215Z,10.26
2022-11-05T08:36:53.029Z,10.27
2022-11-05T08:37:53.197Z,10.27
2022-11-05T08:38:53.011Z,10.29
2022-11-05T08:39:53.029Z,10.33
2022-11-05T08:40:52.969Z,10.38
2022-11-05T08:41:54.142Z,10.46
2022-11-05T08:42:52.951Z,10.57
2022-11-05T08:43:53.100Z,10.67
2022-11-05T08:44:52.911Z,10.72
2022-11-05T08:45:53.031Z,10.73
2022-11-05T08:46:52.882Z,10.73
2022-11-05T08:47:56.293Z,10.72
2022-11-05T08:48:52.862Z,10.69
2022-11-05T08:49:52.907Z,10.67
2022-11-05T08:50:52.840Z,10.62
2022-11-05T08:51:52.939Z,10.61
2022-11-05T08:52:52.810Z,10.62
2022-11-05T08:53:52.940Z,10.66
2022-11-05T08:54:52.781Z,10.71
2022-11-05T08:55:52.913Z,10.75
2022-11-05T08:56:52.761Z,10.79
2022-11-05T08:57:52.851Z,10.84
2022-11-05T08:58:52.733Z,10.90
2022-11-05T08:59:53.863Z,10.92
2022-11-05T09:00:52.745Z,10.93
2022-11-05T09:01:53.950Z,10.95
2022-11-05T09:02:52.680Z,10.96
2022-11-05T09:03:52.853Z,10.98
2022-11-05T09:04:52.653Z,10.98
2022-11-05T09:05:52.739Z,10.95
2022-11-05T09:06:53.349Z,10.92
2022-11-05T09:07:59.423Z,10.86
2022-11-05T09:08:55.600Z,10.83
2022-11-05T09:09:56.539Z,10.83
2022-11-05T09:10:53.877Z,10.85
2022-11-05T09:12:11.647Z,10.88
2022-11-05T09:12:54.205Z,10.93
2022-11-05T09:13:56.283Z,10.97
2022-11-05T09:14:55.167Z,11.01
2022-11-05T09:15:55.046Z,11.04
2022-11-05T09:16:53.710Z,11.04
2022-11-05T09:17:52.718Z,11.05
2022-11-05T09:18:52.459Z,11.04
2022-11-05T09:19:52.569Z,11.02
2022-11-05T09:20:52.450Z,11.04
2022-11-05T09:21:52.503Z,11.03
2022-11-05T09:22:52.527Z,11.06
2022-11-05T09:23:55.861Z,11.10
2022-11-05T09:24:52.401Z,11.17
2022-11-05T09:25:52.479Z,11.24
2022-11-05T09:26:52.358Z,11.28
2022-11-05T09:27:53.528Z,11.30
2022-11-05T09:28:52.332Z,11.26
2022-11-05T09:29:52.507Z,11.25
2022-11-05T09:30:52.309Z,11.24
2022-11-05T09:31:52.383Z,11.26
2022-11-05T09:32:52.269Z,11.29
2022-11-05T09:33:54.411Z,11.34
2022-11-05T09:34:52.258Z,11.39
2022-11-05T09:35:52.403Z,11.43
2022-11-05T09:36:52.236Z,11.50
2022-11-05T09:37:55.600Z,11.58
2022-11-05T09:38:53.198Z,11.65
2022-11-05T09:39:52.319Z,11.71
2022-11-05T09:40:52.182Z,11.77
2022-11-05T09:41:53.239Z,11.83
2022-11-05T09:42:52.148Z,11.89
2022-11-05T09:43:52.289Z,11.97
2022-11-05T09:44:52.120Z,12.06
2022-11-05T09:45:53.248Z,12.14
2022-11-05T09:46:52.090Z,12.22
2022-11-05T09:47:52.319Z,12.29
2022-11-05T09:48:52.083Z,12.37
2022-11-05T09:49:52.102Z,12.40
2022-11-05T09:50:52.070Z,12.44
2022-11-05T09:51:53.558Z,12.47
2022-11-05T09:52:53.142Z,12.43
2022-11-05T09:53:54.046Z,12.36
2022-11-05T09:54:58.412Z,12.30
2022-11-05T09:55:53.213Z,12.25
2022-11-05T09:56:53.159Z,12.23
2022-11-05T09:57:53.044Z,12.22
2022-11-05T09:58:55.087Z,12.22
2022-11-05T09:59:52.097Z,12.23
2022-11-05T10:00:54.674Z,12.21
2022-11-05T10:01:54.275Z,12.18
2022-11-05T10:02:55.102Z,12.14
2022-11-05T10:03:52.776Z,12.11
2022-11-05T10:04:53.781Z,12.06
2022-11-05T10:05:55.370Z,11.98
2022-11-05T10:06:51.836Z,11.93
2022-11-05T10:07:51.938Z,11.91
2022-11-05T10:09:00.771Z,11.92
2022-11-05T10:09:51.819Z,11.96
2022-11-05T10:10:54.440Z,12.02
2022-11-05T10:11:54.351Z,12.07
2022-11-05T10:12:53.621Z,12.10
2022-11-05T10:13:51.959Z,12.09
2022-11-05T10:14:52.059Z,12.06
2022-11-05T10:15:52.720Z,12.04
2022-11-05T10:16:55.038Z,12.02
2022-11-05T10:17:51.901Z,12.01
2022-11-05T10:18:51.690Z,12.00
2022-11-05T10:19:52.129Z,11.99
2022-11-05T10:20:51.650Z,11.99
2022-11-05T10:22:06.554Z,12.00
2022-11-05T10:22:53.229Z,11.99
2022-11-05T10:23:51.819Z,11.99
2022-11-05T10:24:51.591Z,12.01
2022-11-05T10:26:12.719Z,12.04
2022-11-05T10:26:51.561Z,12.08
2022-11-05T10:27:53.684Z,12.10
2022-11-05T10:28:51.552Z,12.13
2022-11-05T10:29:51.620Z,12.17
2022-11-05T10:30:51.509Z,12.19
2022-11-05T10:31:51.582Z,12.23
2022-11-05T10:32:51.480Z,12.26
2022-11-05T10:34:12.631Z,12.27
2022-11-05T10:34:51.462Z,12.28
2022-11-05T10:35:51.520Z,12.31
2022-11-05T10:36:51.439Z,12.33
2022-11-05T10:37:51.597Z,12.36
2022-11-05T10:38:51.401Z,12.37
2022-11-05T10:39:51.552Z,12.34
2022-11-05T10:40:51.379Z,12.32
2022-11-05T10:41:51.535Z,12.31
2022-11-05T10:42:51.351Z,12.28
2022-11-05T10:44:18.553Z,12.27
2022-11-05T10:44:52.360Z,12.25
2022-11-05T10:45:51.414Z,12.23
2022-11-05T10:46:51.305Z,12.24
2022-11-05T10:47:51.440Z,12.26
2022-11-05T10:48:51.278Z,12.30
2022-11-05T10:50:15.574Z,12.33
2022-11-05T10:50:51.250Z,12.38
2022-11-05T10:51:51.408Z,12.41
2022-11-05T10:52:51.220Z,12.41
2022-11-05T10:53:51.340Z,12.41
2022-11-05T10:54:51.193Z,12.41
2022-11-05T10:55:51.332Z,12.43
2022-11-05T10:56:51.167Z,12.40
2022-11-05T10:57:51.317Z,12.39
2022-11-05T10:58:51.142Z,12.38
2022-11-05T10:59:51.250Z,12.40
2022-11-05T11:00:51.179Z,12.43
2022-11-05T11:01:51.327Z,12.48
2022-11-05T11:02:51.089Z,12.61
2022-11-05T11:03:51.136Z,12.76
2022-11-05T11:04:51.060Z,12.87
2022-11-05T11:05:51.151Z,12.96
2022-11-05T11:06:51.031Z,13.02
2022-11-05T11:07:51.140Z,13.06
2022-11-05T11:08:51.021Z,13.02
2022-11-05T11:09:51.160Z,13.00
2022-11-05T11:10:50.988Z,12.98
2022-11-05T11:11:52.083Z,12.98
2022-11-05T11:12:51.001Z,12.99
2022-11-05T11:13:51.160Z,12.99
2022-11-05T11:14:50.934Z,12.93
2022-11-05T11:15:51.034Z,12.91
2022-11-05T11:16:50.901Z,12.91
2022-11-05T11:17:50.992Z,12.92
2022-11-05T11:18:50.879Z,12.91
2022-11-05T11:19:51.061Z,12.90
2022-11-05T11:20:50.841Z,12.91
2022-11-05T11:21:50.932Z,12.89
2022-11-05T11:22:50.823Z,12.87
2022-11-05T11:23:50.872Z,12.85
2022-11-05T11:24:50.935Z,12.82
2022-11-05T11:25:50.959Z,12.79
2022-11-05T11:26:50.772Z,12.76
2022-11-05T11:27:50.943Z,12.74
2022-11-05T11:28:50.739Z,12.71
2022-11-05T11:29:50.780Z,12.69
2022-11-05T11:30:50.712Z,12.65
2022-11-05T11:31:50.853Z,12.63
2022-11-05T11:32:50.691Z,12.63
2022-11-05T11:33:50.756Z,12.63
2022-11-05T11:34:50.662Z,12.63
2022-11-05T11:35:51.820Z,12.63
2022-11-05T11:36:50.631Z,12.61
2022-11-05T11:37:50.792Z,12.59
2022-11-05T11:38:50.626Z,12.58
2022-11-05T11:39:51.679Z,12.54
2022-11-05T11:40:50.581Z,12.52
2022-11-05T11:41:50.692Z,12.55
2022-11-05T11:42:50.562Z,12.58
2022-11-05T11:43:50.674Z,12.62
2022-11-05T11:44:50.529Z,12.60
2022-11-05T11:45:50.652Z,12.58
2022-11-05T11:46:50.531Z,12.56
2022-11-05T11:47:50.694Z,12.54
2022-11-05T11:48:50.473Z,12.50
2022-11-05T11:49:50.579Z,12.47
2022-11-05T11:50:50.453Z,12.44
2022-11-05T11:51:50.562Z,12.43
2022-11-05T11:52:50.429Z,12.41
2022-11-05T11:53:50.497Z,12.44
2022-11-05T11:54:50.400Z,12.52
2022-11-05T11:55:50.582Z,12.58
2022-11-05T11:56:50.375Z,12.65
2022-11-05T11:57:50.475Z,12.72
2022-11-05T11:58:50.338Z,12.78
2022-11-05T12:00:51.619Z,12.82
2022-11-05T12:01:50.562Z,12.80
2022-11-05T12:02:50.481Z,12.80
2022-11-05T12:03:50.312Z,12.80
2022-11-05T12:04:51.330Z,12.81
2022-11-05T12:05:51.128Z,12.80
2022-11-05T12:06:52.258Z,12.78
2022-11-05T12:07:51.038Z,12.76
2022-11-05T12:09:13.450Z,12.74
2022-11-05T12:09:50.986Z,12.75
2022-11-05T12:10:51.138Z,12.75
2022-11-05T12:11:50.954Z,12.74
2022-11-05T12:12:51.158Z,12.73
2022-11-05T12:13:50.142Z,12.71
2022-11-05T12:14:50.185Z,12.70
2022-11-05T12:15:50.112Z,12.66
2022-11-05T12:16:50.187Z,12.62
2022-11-05T12:17:50.094Z,12.59
2022-11-05T12:18:50.158Z,12.58
2022-11-05T12:19:50.065Z,12.57
2022-11-05T12:20:55.340Z,12.54
2022-11-05T12:21:53.460Z,12.52
2022-11-05T12:22:52.289Z,12.52
2022-11-05T12:23:50.067Z,12.52
2022-11-05T12:24:55.988Z,12.53
2022-11-05T12:25:53.606Z,12.52
2022-11-05T12:26:53.412Z,12.51
2022-11-05T12:27:50.229Z,12.48
2022-11-05T12:29:16.503Z,12.45
2022-11-05T12:29:51.634Z,12.42
2022-11-05T12:30:49.986Z,12.39
2022-11-05T12:31:49.891Z,12.39
2022-11-05T12:32:50.210Z,12.38
2022-11-05T12:33:49.875Z,12.39
2022-11-05T12:34:49.936Z,12.39
2022-11-05T12:35:54.792Z,12.40
2022-11-05T12:36:50.850Z,12.42
2022-11-05T12:37:49.926Z,12.44
2022-11-05T12:38:49.819Z,12.44
2022-11-05T12:39:49.845Z,12.46
2022-11-05T12:40:49.787Z,12.49
2022-11-05T12:41:49.913Z,12.53
2022-11-05T12:42:49.788Z,12.56
2022-11-05T12:43:49.804Z,12.58
2022-11-05T12:44:49.731Z,12.56
2022-11-05T12:45:50.805Z,12.55
2022-11-05T12:46:49.707Z,12.56
2022-11-05T12:47:49.749Z,12.56
2022-11-05T12:48:49.673Z,12.58
2022-11-05T12:49:49.745Z,12.59
2022-11-05T12:50:49.653Z,12.62
2022-11-05T12:51:49.762Z,12.66
2022-11-05T12:52:49.634Z,12.66
2022-11-05T12:53:49.735Z,12.67
2022-11-05T12:54:49.603Z,12.68
2022-11-05T12:55:49.654Z,12.69
2022-11-05T12:56:49.573Z,12.69
2022-11-05T12:57:49.671Z,12.68
2022-11-05T12:58:49.543Z,12.67
2022-11-05T12:59:49.636Z,12.69
2022-11-05T13:00:49.563Z,12.70
2022-11-05T13:01:49.781Z,12.71
2022-11-05T13:02:49.493Z,12.69
2022-11-05T13:03:50.524Z,12.66
2022-11-05T13:04:49.464Z,12.62
2022-11-05T13:05:49.591Z,12.59
2022-11-05T13:06:49.435Z,12.55
2022-11-05T13:07:49.526Z,12.52
2022-11-05T13:08:49.407Z,12.50
2022-11-05T13:09:50.486Z,12.49
2022-11-05T13:10:49.386Z,12.45